sensor_id;sensor_type;location;lat;lon;timestamp;P1;durP1;ratioP1;P2;durP2;ratioP2
51660;SDS011;37741;49.748;8.490;2023-03-04T00:01:13;30.95;;;18.05;;
51660;SDS011;37741;49.748;8.490;2023-03-04T00:03:39;32.50;;;20.88;;
51660;SDS011;37741;49.748;8.490;2023-03-04T00:06:05;32.00;;;19.40;;
51660;SDS011;37741;49.748;8.490;2023-03-04T00:08:31;32.40;;;19.48;;
51660;SDS011;37741;49.748;8.490;2023-03-04T00:10:57;32.00;;;19.50;;
51660;SDS011;37741;49.748;8.490;2023-03-04T00:13:22;31.10;;;19.33;;
51660;SDS011;37741;49.748;8.490;2023-03-04T00:15:49;31.33;;;19.98;;
51660;SDS011;37741;49.748;8.490;2023-03-04T00:18:14;32.95;;;19.33;;
51660;SDS011;37741;49.748;8.490;2023-03-04T00:20:40;29.15;;;17.65;;
51660;SDS011;37741;49.748;8.490;2023-03-04T00:23:06;34.13;;;20.60;;
51660;SDS011;37741;49.748;8.490;2023-03-04T00:25:31;33.80;;;19.42;;
51660;SDS011;37741;49.748;8.490;2023-03-04T00:27:57;33.17;;;19.88;;
51660;SDS011;37741;49.748;8.490;2023-03-04T00:30:23;32.28;;;19.48;;
51660;SDS011;37741;49.748;8.490;2023-03-04T00:32:49;34.28;;;19.80;;
51660;SDS011;37741;49.748;8.490;2023-03-04T00:35:14;33.42;;;19.98;;
51660;SDS011;37741;49.748;8.490;2023-03-04T00:37:40;31.63;;;19.48;;
51660;SDS011;37741;49.748;8.490;2023-03-04T00:40:06;35.13;;;20.48;;
51660;SDS011;37741;49.748;8.490;2023-03-04T00:42:33;33.50;;;20.83;;
51660;SDS011;37741;49.748;8.490;2023-03-04T00:44:59;35.67;;;21.05;;
51660;SDS011;37741;49.748;8.490;2023-03-04T00:47:24;34.05;;;20.83;;
51660;SDS011;37741;49.748;8.490;2023-03-04T00:49:50;35.38;;;20.58;;
51660;SDS011;37741;49.748;8.490;2023-03-04T00:52:15;34.22;;;21.73;;
51660;SDS011;37741;49.748;8.490;2023-03-04T00:54:41;35.22;;;20.77;;
51660;SDS011;37741;49.748;8.490;2023-03-04T00:57:07;36.33;;;20.63;;
51660;SDS011;37741;49.748;8.490;2023-03-04T00:59:32;31.27;;;19.45;;
51660;SDS011;37741;49.748;8.490;2023-03-04T01:01:58;34.17;;;20.15;;
51660;SDS011;37741;49.748;8.490;2023-03-04T01:04:24;35.55;;;21.05;;
51660;SDS011;37741;49.748;8.490;2023-03-04T01:06:49;36.78;;;21.27;;
51660;SDS011;37741;49.748;8.490;2023-03-04T01:09:15;32.75;;;20.00;;
51660;SDS011;37741;49.748;8.490;2023-03-04T01:11:40;33.60;;;20.00;;
51660;SDS011;37741;49.748;8.490;2023-03-04T01:14:06;32.42;;;19.38;;
51660;SDS011;37741;49.748;8.490;2023-03-04T01:16:34;36.40;;;22.23;;
51660;SDS011;37741;49.748;8.490;2023-03-04T01:18:59;32.65;;;20.55;;
51660;SDS011;37741;49.748;8.490;2023-03-04T01:21:25;34.45;;;20.75;;
51660;SDS011;37741;49.748;8.490;2023-03-04T01:23:50;31.30;;;18.80;;
51660;SDS011;37741;49.748;8.490;2023-03-04T01:26:16;34.92;;;20.35;;
51660;SDS011;37741;49.748;8.490;2023-03-04T01:28:42;36.08;;;22.38;;
51660;SDS011;37741;49.748;8.490;2023-03-04T01:31:07;34.28;;;21.45;;
51660;SDS011;37741;49.748;8.490;2023-03-04T01:33:33;34.05;;;21.75;;
51660;SDS011;37741;49.748;8.490;2023-03-04T01:35:59;38.33;;;21.88;;
51660;SDS011;37741;49.748;8.490;2023-03-04T01:38:24;37.22;;;21.08;;
51660;SDS011;37741;49.748;8.490;2023-03-04T01:40:50;31.48;;;18.95;;
51660;SDS011;37741;49.748;8.490;2023-03-04T01:43:20;33.47;;;19.75;;
51660;SDS011;37741;49.748;8.490;2023-03-04T01:45:48;37.30;;;21.33;;
51660;SDS011;37741;49.748;8.490;2023-03-04T01:48:15;39.30;;;22.08;;
51660;SDS011;37741;49.748;8.490;2023-03-04T01:50:46;32.97;;;19.98;;
51660;SDS011;37741;49.748;8.490;2023-03-04T01:53:19;33.25;;;21.25;;
51660;SDS011;37741;49.748;8.490;2023-03-04T01:55:47;36.38;;;21.70;;
51660;SDS011;37741;49.748;8.490;2023-03-04T01:58:14;36.08;;;21.02;;
51660;SDS011;37741;49.748;8.490;2023-03-04T02:00:40;36.25;;;21.45;;
51660;SDS011;37741;49.748;8.490;2023-03-04T02:03:10;40.38;;;22.88;;
51660;SDS011;37741;49.748;8.490;2023-03-04T02:05:40;36.88;;;22.25;;
51660;SDS011;37741;49.748;8.490;2023-03-04T02:08:09;36.45;;;21.80;;
51660;SDS011;37741;49.748;8.490;2023-03-04T02:10:36;36.38;;;21.30;;
51660;SDS011;37741;49.748;8.490;2023-03-04T02:13:02;36.85;;;22.25;;
51660;SDS011;37741;49.748;8.490;2023-03-04T02:15:28;36.75;;;23.63;;
51660;SDS011;37741;49.748;8.490;2023-03-04T02:17:54;42.20;;;22.58;;
51660;SDS011;37741;49.748;8.490;2023-03-04T02:23:19;35.28;;;20.38;;
51660;SDS011;37741;49.748;8.490;2023-03-04T02:26:21;37.22;;;23.48;;
51660;SDS011;37741;49.748;8.490;2023-03-04T02:28:51;37.20;;;22.73;;
51660;SDS011;37741;49.748;8.490;2023-03-04T02:31:30;36.95;;;22.50;;
51660;SDS011;37741;49.748;8.490;2023-03-04T02:33:57;38.78;;;22.08;;
51660;SDS011;37741;49.748;8.490;2023-03-04T02:36:24;40.13;;;22.42;;
51660;SDS011;37741;49.748;8.490;2023-03-04T02:38:51;35.92;;;21.13;;
51660;SDS011;37741;49.748;8.490;2023-03-04T02:41:19;33.95;;;20.42;;
51660;SDS011;37741;49.748;8.490;2023-03-04T02:43:48;33.47;;;21.27;;
51660;SDS011;37741;49.748;8.490;2023-03-04T02:46:16;37.30;;;23.15;;
51660;SDS011;37741;49.748;8.490;2023-03-04T02:48:42;37.53;;;21.27;;
51660;SDS011;37741;49.748;8.490;2023-03-04T02:51:07;39.58;;;22.58;;
51660;SDS011;37741;49.748;8.490;2023-03-04T02:53:33;38.10;;;21.88;;
51660;SDS011;37741;49.748;8.490;2023-03-04T02:55:58;39.08;;;22.60;;
51660;SDS011;37741;49.748;8.490;2023-03-04T02:58:24;38.78;;;21.33;;
51660;SDS011;37741;49.748;8.490;2023-03-04T03:00:50;38.97;;;22.60;;
51660;SDS011;37741;49.748;8.490;2023-03-04T03:03:15;36.97;;;21.92;;
51660;SDS011;37741;49.748;8.490;2023-03-04T03:05:41;39.50;;;22.92;;
51660;SDS011;37741;49.748;8.490;2023-03-04T03:08:06;40.88;;;22.50;;
51660;SDS011;37741;49.748;8.490;2023-03-04T03:10:32;40.05;;;22.27;;
51660;SDS011;37741;49.748;8.490;2023-03-04T03:12:58;36.72;;;22.30;;
51660;SDS011;37741;49.748;8.490;2023-03-04T03:15:24;40.67;;;22.92;;
51660;SDS011;37741;49.748;8.490;2023-03-04T03:17:49;39.65;;;21.67;;
51660;SDS011;37741;49.748;8.490;2023-03-04T03:20:15;40.53;;;21.40;;
51660;SDS011;37741;49.748;8.490;2023-03-04T03:22:42;40.15;;;23.17;;
51660;SDS011;37741;49.748;8.490;2023-03-04T03:25:08;38.97;;;22.90;;
51660;SDS011;37741;49.748;8.490;2023-03-04T03:27:35;42.63;;;24.58;;
51660;SDS011;37741;49.748;8.490;2023-03-04T03:30:00;37.85;;;22.35;;
51660;SDS011;37741;49.748;8.490;2023-03-04T03:32:27;40.08;;;22.70;;
51660;SDS011;37741;49.748;8.490;2023-03-04T03:34:52;39.00;;;21.90;;
51660;SDS011;37741;49.748;8.490;2023-03-04T03:37:18;39.03;;;22.95;;
51660;SDS011;37741;49.748;8.490;2023-03-04T03:39:44;41.28;;;24.02;;
51660;SDS011;37741;49.748;8.490;2023-03-04T03:42:09;40.67;;;22.60;;
51660;SDS011;37741;49.748;8.490;2023-03-04T03:44:35;41.53;;;22.88;;
51660;SDS011;37741;49.748;8.490;2023-03-04T03:47:01;39.05;;;21.83;;
51660;SDS011;37741;49.748;8.490;2023-03-04T03:49:26;41.17;;;22.02;;
51660;SDS011;37741;49.748;8.490;2023-03-04T03:51:52;39.40;;;22.52;;
51660;SDS011;37741;49.748;8.490;2023-03-04T03:54:18;41.05;;;22.48;;
51660;SDS011;37741;49.748;8.490;2023-03-04T03:56:43;41.97;;;23.13;;
51660;SDS011;37741;49.748;8.490;2023-03-04T03:59:09;38.85;;;21.85;;
51660;SDS011;37741;49.748;8.490;2023-03-04T04:01:34;35.65;;;21.15;;
51660;SDS011;37741;49.748;8.490;2023-03-04T04:04:00;38.33;;;21.10;;
51660;SDS011;37741;49.748;8.490;2023-03-04T04:06:26;43.03;;;24.08;;
51660;SDS011;37741;49.748;8.490;2023-03-04T04:08:51;39.65;;;21.85;;
51660;SDS011;37741;49.748;8.490;2023-03-04T04:11:17;40.40;;;22.15;;
51660;SDS011;37741;49.748;8.490;2023-03-04T04:13:43;37.83;;;21.92;;
51660;SDS011;37741;49.748;8.490;2023-03-04T04:16:10;41.50;;;23.73;;
51660;SDS011;37741;49.748;8.490;2023-03-04T04:18:36;38.17;;;21.83;;
51660;SDS011;37741;49.748;8.490;2023-03-04T04:21:02;38.22;;;21.60;;
51660;SDS011;37741;49.748;8.490;2023-03-04T04:23:28;39.03;;;23.30;;
51660;SDS011;37741;49.748;8.490;2023-03-04T04:25:54;40.08;;;23.88;;
51660;SDS011;37741;49.748;8.490;2023-03-04T04:28:20;40.50;;;21.48;;
51660;SDS011;37741;49.748;8.490;2023-03-04T04:30:45;42.85;;;21.95;;
51660;SDS011;37741;49.748;8.490;2023-03-04T04:33:11;38.92;;;21.63;;
51660;SDS011;37741;49.748;8.490;2023-03-04T04:35:37;39.88;;;22.17;;
51660;SDS011;37741;49.748;8.490;2023-03-04T04:38:03;42.22;;;23.00;;
51660;SDS011;37741;49.748;8.490;2023-03-04T04:40:29;40.47;;;21.10;;
51660;SDS011;37741;49.748;8.490;2023-03-04T04:42:55;39.30;;;22.00;;
51660;SDS011;37741;49.748;8.490;2023-03-04T04:45:21;39.05;;;22.30;;
51660;SDS011;37741;49.748;8.490;2023-03-04T04:47:48;39.13;;;20.63;;
51660;SDS011;37741;49.748;8.490;2023-03-04T04:50:14;37.53;;;21.63;;
51660;SDS011;37741;49.748;8.490;2023-03-04T04:52:40;39.72;;;22.08;;
51660;SDS011;37741;49.748;8.490;2023-03-04T04:55:06;41.08;;;23.02;;
51660;SDS011;37741;49.748;8.490;2023-03-04T04:57:33;42.28;;;23.27;;
51660;SDS011;37741;49.748;8.490;2023-03-04T04:59:59;38.42;;;21.83;;
51660;SDS011;37741;49.748;8.490;2023-03-04T05:02:24;37.63;;;21.73;;
51660;SDS011;37741;49.748;8.490;2023-03-04T05:04:50;42.00;;;23.17;;
51660;SDS011;37741;49.748;8.490;2023-03-04T05:07:16;40.42;;;21.83;;
51660;SDS011;37741;49.748;8.490;2023-03-04T05:09:41;44.13;;;21.63;;
51660;SDS011;37741;49.748;8.490;2023-03-04T05:12:07;39.17;;;23.23;;
51660;SDS011;37741;49.748;8.490;2023-03-04T05:14:32;39.65;;;22.40;;
51660;SDS011;37741;49.748;8.490;2023-03-04T05:16:58;40.92;;;21.30;;
51660;SDS011;37741;49.748;8.490;2023-03-04T05:19:24;35.55;;;21.08;;
51660;SDS011;37741;49.748;8.490;2023-03-04T05:21:49;36.92;;;21.80;;
51660;SDS011;37741;49.748;8.490;2023-03-04T05:24:15;42.10;;;22.52;;
51660;SDS011;37741;49.748;8.490;2023-03-04T05:26:41;36.42;;;21.13;;
51660;SDS011;37741;49.748;8.490;2023-03-04T05:29:06;35.63;;;20.27;;
51660;SDS011;37741;49.748;8.490;2023-03-04T05:31:32;36.53;;;21.83;;
51660;SDS011;37741;49.748;8.490;2023-03-04T05:33:57;41.83;;;23.75;;
51660;SDS011;37741;49.748;8.490;2023-03-04T05:36:23;40.17;;;21.88;;
51660;SDS011;37741;49.748;8.490;2023-03-04T05:38:48;42.85;;;22.90;;
51660;SDS011;37741;49.748;8.490;2023-03-04T05:41:14;40.22;;;22.05;;
51660;SDS011;37741;49.748;8.490;2023-03-04T05:43:42;41.60;;;21.10;;
51660;SDS011;37741;49.748;8.490;2023-03-04T05:46:12;42.15;;;24.10;;
51660;SDS011;37741;49.748;8.490;2023-03-04T05:48:39;39.42;;;22.55;;
51660;SDS011;37741;49.748;8.490;2023-03-04T05:51:05;36.83;;;21.52;;
51660;SDS011;37741;49.748;8.490;2023-03-04T05:53:31;41.17;;;21.67;;
51660;SDS011;37741;49.748;8.490;2023-03-04T05:55:57;42.47;;;22.73;;
51660;SDS011;37741;49.748;8.490;2023-03-04T05:58:25;35.95;;;21.10;;
51660;SDS011;37741;49.748;8.490;2023-03-04T06:00:51;38.10;;;21.52;;
51660;SDS011;37741;49.748;8.490;2023-03-04T06:03:19;38.20;;;21.42;;
51660;SDS011;37741;49.748;8.490;2023-03-04T06:05:45;38.40;;;21.30;;
51660;SDS011;37741;49.748;8.490;2023-03-04T06:08:11;41.95;;;23.05;;
51660;SDS011;37741;49.748;8.490;2023-03-04T06:10:38;42.67;;;22.20;;
51660;SDS011;37741;49.748;8.490;2023-03-04T06:13:04;39.10;;;23.40;;
51660;SDS011;37741;49.748;8.490;2023-03-04T06:15:30;46.47;;;23.60;;
51660;SDS011;37741;49.748;8.490;2023-03-04T06:17:56;41.65;;;22.75;;
51660;SDS011;37741;49.748;8.490;2023-03-04T06:20:22;43.22;;;24.67;;
51660;SDS011;37741;49.748;8.490;2023-03-04T06:22:47;37.17;;;21.80;;
51660;SDS011;37741;49.748;8.490;2023-03-04T06:25:13;41.25;;;23.15;;
51660;SDS011;37741;49.748;8.490;2023-03-04T06:27:39;37.58;;;21.52;;
51660;SDS011;37741;49.748;8.490;2023-03-04T06:30:05;40.10;;;21.77;;
51660;SDS011;37741;49.748;8.490;2023-03-04T06:32:32;39.72;;;22.27;;
51660;SDS011;37741;49.748;8.490;2023-03-04T06:34:58;38.65;;;23.40;;
51660;SDS011;37741;49.748;8.490;2023-03-04T06:37:24;43.15;;;23.42;;
51660;SDS011;37741;49.748;8.490;2023-03-04T06:39:49;42.90;;;23.25;;
51660;SDS011;37741;49.748;8.490;2023-03-04T06:42:15;40.38;;;23.45;;
51660;SDS011;37741;49.748;8.490;2023-03-04T06:44:40;41.53;;;22.30;;
51660;SDS011;37741;49.748;8.490;2023-03-04T06:47:06;42.92;;;24.45;;
51660;SDS011;37741;49.748;8.490;2023-03-04T06:49:32;46.15;;;23.50;;
51660;SDS011;37741;49.748;8.490;2023-03-04T06:51:59;43.67;;;24.00;;
51660;SDS011;37741;49.748;8.490;2023-03-04T06:54:25;41.20;;;23.02;;
51660;SDS011;37741;49.748;8.490;2023-03-04T06:56:50;40.75;;;23.10;;
51660;SDS011;37741;49.748;8.490;2023-03-04T06:59:16;41.92;;;23.38;;
51660;SDS011;37741;49.748;8.490;2023-03-04T07:01:42;44.55;;;22.80;;
51660;SDS011;37741;49.748;8.490;2023-03-04T07:04:07;42.63;;;23.67;;
51660;SDS011;37741;49.748;8.490;2023-03-04T07:06:33;45.85;;;26.40;;
51660;SDS011;37741;49.748;8.490;2023-03-04T07:08:59;40.05;;;22.88;;
51660;SDS011;37741;49.748;8.490;2023-03-04T07:11:25;45.88;;;24.38;;
51660;SDS011;37741;49.748;8.490;2023-03-04T07:13:51;46.55;;;26.23;;
51660;SDS011;37741;49.748;8.490;2023-03-04T07:16:18;42.88;;;24.27;;
51660;SDS011;37741;49.748;8.490;2023-03-04T07:18:45;41.33;;;23.63;;
51660;SDS011;37741;49.748;8.490;2023-03-04T07:21:12;44.00;;;25.10;;
51660;SDS011;37741;49.748;8.490;2023-03-04T07:23:39;41.38;;;25.08;;
51660;SDS011;37741;49.748;8.490;2023-03-04T07:26:05;48.72;;;26.55;;
51660;SDS011;37741;49.748;8.490;2023-03-04T07:28:30;44.47;;;24.80;;
51660;SDS011;37741;49.748;8.490;2023-03-04T07:30:56;44.00;;;24.92;;
51660;SDS011;37741;49.748;8.490;2023-03-04T07:33:31;43.72;;;23.67;;
51660;SDS011;37741;49.748;8.490;2023-03-04T07:35:57;49.65;;;24.90;;
51660;SDS011;37741;49.748;8.490;2023-03-04T07:38:23;46.05;;;24.05;;
51660;SDS011;37741;49.748;8.490;2023-03-04T07:40:56;45.95;;;24.83;;
51660;SDS011;37741;49.748;8.490;2023-03-04T07:43:22;43.05;;;24.40;;
51660;SDS011;37741;49.748;8.490;2023-03-04T07:45:48;47.08;;;25.08;;
51660;SDS011;37741;49.748;8.490;2023-03-04T07:48:13;46.38;;;26.90;;
51660;SDS011;37741;49.748;8.490;2023-03-04T07:50:39;43.78;;;24.00;;
51660;SDS011;37741;49.748;8.490;2023-03-04T07:53:05;41.83;;;23.02;;
51660;SDS011;37741;49.748;8.490;2023-03-04T07:55:30;44.63;;;24.27;;
51660;SDS011;37741;49.748;8.490;2023-03-04T07:57:56;44.72;;;24.35;;
51660;SDS011;37741;49.748;8.490;2023-03-04T08:00:22;43.97;;;24.23;;
51660;SDS011;37741;49.748;8.490;2023-03-04T08:02:47;42.30;;;24.67;;
51660;SDS011;37741;49.748;8.490;2023-03-04T08:05:13;53.05;;;27.02;;
51660;SDS011;37741;49.748;8.490;2023-03-04T08:07:39;45.00;;;24.45;;
51660;SDS011;37741;49.748;8.490;2023-03-04T08:10:05;45.30;;;26.52;;
51660;SDS011;37741;49.748;8.490;2023-03-04T08:12:32;45.00;;;25.50;;
51660;SDS011;37741;49.748;8.490;2023-03-04T08:14:59;45.55;;;24.05;;
51660;SDS011;37741;49.748;8.490;2023-03-04T08:17:24;47.13;;;25.25;;
51660;SDS011;37741;49.748;8.490;2023-03-04T08:19:50;44.00;;;25.55;;
51660;SDS011;37741;49.748;8.490;2023-03-04T08:22:17;45.00;;;25.75;;
51660;SDS011;37741;49.748;8.490;2023-03-04T08:24:42;49.10;;;25.38;;
51660;SDS011;37741;49.748;8.490;2023-03-04T08:27:08;46.15;;;26.33;;
51660;SDS011;37741;49.748;8.490;2023-03-04T08:29:33;47.65;;;28.08;;
51660;SDS011;37741;49.748;8.490;2023-03-04T08:31:59;43.70;;;25.13;;
51660;SDS011;37741;49.748;8.490;2023-03-04T08:34:25;47.25;;;26.27;;
51660;SDS011;37741;49.748;8.490;2023-03-04T08:36:52;45.22;;;25.33;;
51660;SDS011;37741;49.748;8.490;2023-03-04T08:39:18;48.53;;;25.67;;
51660;SDS011;37741;49.748;8.490;2023-03-04T08:41:45;48.17;;;25.48;;
51660;SDS011;37741;49.748;8.490;2023-03-04T08:44:11;45.25;;;25.50;;
51660;SDS011;37741;49.748;8.490;2023-03-04T08:46:37;46.65;;;28.25;;
51660;SDS011;37741;49.748;8.490;2023-03-04T08:49:04;44.17;;;24.40;;
51660;SDS011;37741;49.748;8.490;2023-03-04T08:51:30;45.75;;;25.45;;
51660;SDS011;37741;49.748;8.490;2023-03-04T08:53:56;50.17;;;26.17;;
51660;SDS011;37741;49.748;8.490;2023-03-04T08:56:22;44.00;;;24.42;;
51660;SDS011;37741;49.748;8.490;2023-03-04T08:58:47;48.30;;;27.05;;
51660;SDS011;37741;49.748;8.490;2023-03-04T09:01:13;44.97;;;24.77;;
51660;SDS011;37741;49.748;8.490;2023-03-04T09:03:40;50.22;;;26.05;;
51660;SDS011;37741;49.748;8.490;2023-03-04T09:06:06;45.22;;;24.92;;
51660;SDS011;37741;49.748;8.490;2023-03-04T09:08:34;45.03;;;26.45;;
51660;SDS011;37741;49.748;8.490;2023-03-04T09:10:59;48.90;;;28.10;;
51660;SDS011;37741;49.748;8.490;2023-03-04T09:13:27;50.72;;;27.73;;
51660;SDS011;37741;49.748;8.490;2023-03-04T09:15:53;47.10;;;26.85;;
51660;SDS011;37741;49.748;8.490;2023-03-04T09:18:20;39.13;;;24.85;;
51660;SDS011;37741;49.748;8.490;2023-03-04T09:20:47;49.75;;;26.02;;
51660;SDS011;37741;49.748;8.490;2023-03-04T09:23:13;50.22;;;26.55;;
51660;SDS011;37741;49.748;8.490;2023-03-04T09:25:40;51.55;;;25.83;;
51660;SDS011;37741;49.748;8.490;2023-03-04T09:28:06;48.05;;;25.23;;
51660;SDS011;37741;49.748;8.490;2023-03-04T09:30:32;45.50;;;26.25;;
51660;SDS011;37741;49.748;8.490;2023-03-04T09:32:58;47.47;;;26.17;;
51660;SDS011;37741;49.748;8.490;2023-03-04T09:35:24;42.15;;;25.98;;
51660;SDS011;37741;49.748;8.490;2023-03-04T09:37:50;45.13;;;25.25;;
51660;SDS011;37741;49.748;8.490;2023-03-04T09:40:27;43.70;;;24.65;;
51660;SDS011;37741;49.748;8.490;2023-03-04T09:42:57;42.42;;;24.55;;
51660;SDS011;37741;49.748;8.490;2023-03-04T09:45:28;43.25;;;25.75;;
51660;SDS011;37741;49.748;8.490;2023-03-04T09:48:00;44.65;;;23.83;;
51660;SDS011;37741;49.748;8.490;2023-03-04T09:50:26;47.00;;;26.10;;
51660;SDS011;37741;49.748;8.490;2023-03-04T09:53:05;41.72;;;24.08;;
51660;SDS011;37741;49.748;8.490;2023-03-04T09:55:39;44.67;;;25.48;;
51660;SDS011;37741;49.748;8.490;2023-03-04T10:00:53;45.92;;;25.20;;
51660;SDS011;37741;49.748;8.490;2023-03-04T10:03:26;42.85;;;24.13;;
51660;SDS011;37741;49.748;8.490;2023-03-04T10:06:09;40.40;;;24.88;;
51660;SDS011;37741;49.748;8.490;2023-03-04T10:11:17;46.72;;;26.40;;
51660;SDS011;37741;49.748;8.490;2023-03-04T10:16:58;41.15;;;24.23;;
51660;SDS011;37741;49.748;8.490;2023-03-04T10:22:40;44.30;;;25.63;;
51660;SDS011;37741;49.748;8.490;2023-03-04T10:25:18;40.77;;;23.63;;
51660;SDS011;37741;49.748;8.490;2023-03-04T10:27:50;39.53;;;24.88;;
51660;SDS011;37741;49.748;8.490;2023-03-04T10:33:24;40.65;;;24.13;;
51660;SDS011;37741;49.748;8.490;2023-03-04T10:35:58;44.20;;;25.42;;
51660;SDS011;37741;49.748;8.490;2023-03-04T10:38:41;41.30;;;23.80;;
51660;SDS011;37741;49.748;8.490;2023-03-04T10:41:11;42.83;;;24.63;;
51660;SDS011;37741;49.748;8.490;2023-03-04T10:43:50;38.50;;;24.48;;
51660;SDS011;37741;49.748;8.490;2023-03-04T10:46:26;39.70;;;23.90;;
51660;SDS011;37741;49.748;8.490;2023-03-04T10:48:52;45.17;;;27.13;;
51660;SDS011;37741;49.748;8.490;2023-03-04T10:51:19;42.17;;;25.20;;
51660;SDS011;37741;49.748;8.490;2023-03-04T10:53:48;38.13;;;24.45;;
51660;SDS011;37741;49.748;8.490;2023-03-04T11:02:01;42.20;;;24.63;;
51660;SDS011;37741;49.748;8.490;2023-03-04T11:04:41;40.22;;;23.80;;
51660;SDS011;37741;49.748;8.490;2023-03-04T11:07:13;41.38;;;24.65;;
51660;SDS011;37741;49.748;8.490;2023-03-04T11:09:39;42.90;;;25.25;;
51660;SDS011;37741;49.748;8.490;2023-03-04T11:12:12;41.08;;;24.48;;
51660;SDS011;37741;49.748;8.490;2023-03-04T11:17:21;36.65;;;22.73;;
51660;SDS011;37741;49.748;8.490;2023-03-04T11:19:56;44.67;;;24.15;;
51660;SDS011;37741;49.748;8.490;2023-03-04T11:22:28;36.30;;;23.55;;
51660;SDS011;37741;49.748;8.490;2023-03-04T11:25:00;40.40;;;23.48;;
51660;SDS011;37741;49.748;8.490;2023-03-04T11:32:44;38.63;;;22.17;;
51660;SDS011;37741;49.748;8.490;2023-03-04T11:40:42;32.67;;;21.45;;
51660;SDS011;37741;49.748;8.490;2023-03-04T11:43:44;33.78;;;21.20;;
51660;SDS011;37741;49.748;8.490;2023-03-04T11:51:43;33.65;;;20.58;;
51660;SDS011;37741;49.748;8.490;2023-03-04T11:54:28;36.47;;;21.05;;
51660;SDS011;37741;49.748;8.490;2023-03-04T11:59:44;32.63;;;19.45;;
51660;SDS011;37741;49.748;8.490;2023-03-04T12:02:29;31.67;;;19.70;;
51660;SDS011;37741;49.748;8.490;2023-03-04T12:05:08;30.92;;;18.83;;
51660;SDS011;37741;49.748;8.490;2023-03-04T12:10:56;35.10;;;20.40;;
51660;SDS011;37741;49.748;8.490;2023-03-04T12:13:41;32.03;;;19.70;;
51660;SDS011;37741;49.748;8.490;2023-03-04T12:16:24;34.40;;;19.52;;
51660;SDS011;37741;49.748;8.490;2023-03-04T12:27:30;28.48;;;18.45;;
51660;SDS011;37741;49.748;8.490;2023-03-04T12:30:16;31.45;;;18.38;;
51660;SDS011;37741;49.748;8.490;2023-03-04T12:35:43;30.20;;;17.75;;
51660;SDS011;37741;49.748;8.490;2023-03-04T12:57:25;26.70;;;16.25;;
51660;SDS011;37741;49.748;8.490;2023-03-04T13:03:02;30.15;;;18.27;;
51660;SDS011;37741;49.748;8.490;2023-03-04T13:05:57;28.80;;;17.85;;
51660;SDS011;37741;49.748;8.490;2023-03-04T13:08:59;27.15;;;16.63;;
51660;SDS011;37741;49.748;8.490;2023-03-04T13:14:01;28.83;;;18.25;;
51660;SDS011;37741;49.748;8.490;2023-03-04T13:16:55;22.35;;;14.43;;
51660;SDS011;37741;49.748;8.490;2023-03-04T13:24:54;22.75;;;12.18;;
51660;SDS011;37741;49.748;8.490;2023-03-04T13:38:33;16.45;;;10.65;;
51660;SDS011;37741;49.748;8.490;2023-03-04T13:43:50;25.02;;;11.70;;
51660;SDS011;37741;49.748;8.490;2023-03-04T13:49:03;16.65;;;10.48;;
51660;SDS011;37741;49.748;8.490;2023-03-04T13:51:34;20.15;;;9.93;;
51660;SDS011;37741;49.748;8.490;2023-03-04T13:54:11;16.85;;;10.25;;
51660;SDS011;37741;49.748;8.490;2023-03-04T13:56:41;16.45;;;10.27;;
51660;SDS011;37741;49.748;8.490;2023-03-04T13:59:12;17.35;;;9.77;;
51660;SDS011;37741;49.748;8.490;2023-03-04T14:01:55;19.40;;;10.98;;
51660;SDS011;37741;49.748;8.490;2023-03-04T14:07:36;18.08;;;10.77;;
51660;SDS011;37741;49.748;8.490;2023-03-04T14:10:17;13.57;;;8.45;;
51660;SDS011;37741;49.748;8.490;2023-03-04T14:12:48;16.58;;;9.27;;
51660;SDS011;37741;49.748;8.490;2023-03-04T14:15:21;15.65;;;9.45;;
51660;SDS011;37741;49.748;8.490;2023-03-04T14:17:52;15.70;;;9.27;;
51660;SDS011;37741;49.748;8.490;2023-03-04T14:20:24;13.48;;;9.10;;
51660;SDS011;37741;49.748;8.490;2023-03-04T14:22:51;17.00;;;9.13;;
51660;SDS011;37741;49.748;8.490;2023-03-04T14:25:29;15.50;;;9.00;;
51660;SDS011;37741;49.748;8.490;2023-03-04T14:28:00;13.77;;;9.02;;
51660;SDS011;37741;49.748;8.490;2023-03-04T14:30:34;15.90;;;9.15;;
51660;SDS011;37741;49.748;8.490;2023-03-04T14:33:00;14.98;;;9.50;;
51660;SDS011;37741;49.748;8.490;2023-03-04T14:35:30;16.95;;;9.98;;
51660;SDS011;37741;49.748;8.490;2023-03-04T14:37:59;14.85;;;8.88;;
51660;SDS011;37741;49.748;8.490;2023-03-04T14:40:40;17.20;;;9.65;;
51660;SDS011;37741;49.748;8.490;2023-03-04T14:43:14;15.70;;;8.98;;
51660;SDS011;37741;49.748;8.490;2023-03-04T14:45:46;16.48;;;11.02;;
51660;SDS011;37741;49.748;8.490;2023-03-04T14:48:17;17.75;;;11.07;;
51660;SDS011;37741;49.748;8.490;2023-03-04T14:51:02;15.07;;;8.88;;
51660;SDS011;37741;49.748;8.490;2023-03-04T14:53:28;17.10;;;10.10;;
51660;SDS011;37741;49.748;8.490;2023-03-04T14:56:07;17.50;;;11.27;;
51660;SDS011;37741;49.748;8.490;2023-03-04T14:58:34;14.20;;;8.65;;
51660;SDS011;37741;49.748;8.490;2023-03-04T15:01:27;13.63;;;8.50;;
51660;SDS011;37741;49.748;8.490;2023-03-04T15:04:09;18.17;;;8.50;;
51660;SDS011;37741;49.748;8.490;2023-03-04T15:06:47;13.55;;;8.45;;
51660;SDS011;37741;49.748;8.490;2023-03-04T15:11:50;14.50;;;8.48;;
51660;SDS011;37741;49.748;8.490;2023-03-04T15:22:30;12.73;;;7.78;;
51660;SDS011;37741;49.748;8.490;2023-03-04T15:24:59;17.02;;;8.90;;
51660;SDS011;37741;49.748;8.490;2023-03-04T15:27:26;12.25;;;7.53;;
51660;SDS011;37741;49.748;8.490;2023-03-04T15:29:53;10.68;;;7.78;;
51660;SDS011;37741;49.748;8.490;2023-03-04T15:32:23;15.68;;;9.77;;
51660;SDS011;37741;49.748;8.490;2023-03-04T15:34:55;23.48;;;11.60;;
51660;SDS011;37741;49.748;8.490;2023-03-04T15:37:22;16.15;;;9.82;;
51660;SDS011;37741;49.748;8.490;2023-03-04T15:39:51;15.50;;;9.20;;
51660;SDS011;37741;49.748;8.490;2023-03-04T15:42:16;15.88;;;9.00;;
51660;SDS011;37741;49.748;8.490;2023-03-04T15:44:43;15.20;;;9.15;;
51660;SDS011;37741;49.748;8.490;2023-03-04T15:47:09;14.45;;;8.57;;
51660;SDS011;37741;49.748;8.490;2023-03-04T15:49:37;15.38;;;9.48;;
51660;SDS011;37741;49.748;8.490;2023-03-04T15:52:04;15.32;;;8.40;;
51660;SDS011;37741;49.748;8.490;2023-03-04T15:54:30;11.45;;;8.02;;
51660;SDS011;37741;49.748;8.490;2023-03-04T15:56:57;13.38;;;8.55;;
51660;SDS011;37741;49.748;8.490;2023-03-04T15:59:24;13.27;;;7.85;;
51660;SDS011;37741;49.748;8.490;2023-03-04T16:01:50;13.73;;;7.43;;
51660;SDS011;37741;49.748;8.490;2023-03-04T16:04:16;12.02;;;7.63;;
51660;SDS011;37741;49.748;8.490;2023-03-04T16:06:42;13.25;;;8.10;;
51660;SDS011;37741;49.748;8.490;2023-03-04T16:09:11;12.35;;;7.53;;
51660;SDS011;37741;49.748;8.490;2023-03-04T16:11:41;10.98;;;7.07;;
51660;SDS011;37741;49.748;8.490;2023-03-04T16:14:10;10.55;;;6.57;;
51660;SDS011;37741;49.748;8.490;2023-03-04T16:16:38;12.10;;;7.15;;
51660;SDS011;37741;49.748;8.490;2023-03-04T16:19:04;12.43;;;7.78;;
51660;SDS011;37741;49.748;8.490;2023-03-04T16:21:30;16.52;;;7.63;;
51660;SDS011;37741;49.748;8.490;2023-03-04T16:23:56;13.65;;;7.57;;
51660;SDS011;37741;49.748;8.490;2023-03-04T16:26:24;12.95;;;7.78;;
51660;SDS011;37741;49.748;8.490;2023-03-04T16:28:51;11.85;;;6.97;;
51660;SDS011;37741;49.748;8.490;2023-03-04T16:31:18;14.27;;;7.25;;